createdAt,value
2023-10-30T00:00:13.093Z,11.66
2023-10-30T00:02:53.561Z,11.62
2023-10-30T00:05:33.968Z,11.62
2023-10-30T00:08:14.317Z,11.64
2023-10-30T00:10:54.836Z,11.71
2023-10-30T00:13:35.175Z,11.69
2023-10-30T00:16:16.944Z,11.68
2023-10-30T00:18:59.849Z,11.67
2023-10-30T00:21:40.018Z,11.69
2023-10-30T00:24:20.307Z,11.72
2023-10-30T00:27:00.452Z,11.69
2023-10-30T00:29:41.979Z,11.70
2023-10-30T00:32:22.200Z,11.73
2023-10-30T00:35:02.798Z,11.73
2023-10-30T00:37:42.871Z,11.79
2023-10-30T00:40:23.151Z,11.82
2023-10-30T00:43:03.550Z,11.79
2023-10-30T00:45:43.764Z,11.76
2023-10-30T00:48:26.724Z,11.75
2023-10-30T00:51:06.991Z,11.72
2023-10-30T00:53:47.905Z,11.75
2023-10-30T00:56:28.220Z,11.76
2023-10-30T00:59:08.429Z,11.72
2023-10-30T01:01:48.625Z,11.71
2023-10-30T01:04:29.109Z,11.76
2023-10-30T01:07:10.887Z,11.78
2023-10-30T01:09:51.585Z,11.78
2023-10-30T01:12:32.179Z,11.75
2023-10-30T01:15:12.488Z,11.72
2023-10-30T01:17:52.719Z,11.74
2023-10-30T01:20:38.567Z,11.80
2023-10-30T01:23:18.633Z,11.81
2023-10-30T01:25:58.736Z,11.80
2023-10-30T01:28:39.397Z,11.80
2023-10-30T01:31:19.685Z,11.75
2023-10-30T01:34:00.120Z,11.76
2023-10-30T01:36:40.708Z,11.76
2023-10-30T01:39:21.124Z,11.72
2023-10-30T01:42:01.434Z,11.72
2023-10-30T01:44:57.775Z,11.76
2023-10-30T01:47:39.059Z,11.80
2023-10-30T01:50:20.897Z,11.75
2023-10-30T01:53:01.793Z,11.83
2023-10-30T01:55:43.138Z,11.78
2023-10-30T01:58:24.354Z,11.76
2023-10-30T02:01:05.230Z,11.75
2023-10-30T02:03:45.469Z,11.71
2023-10-30T02:06:26.196Z,11.80
2023-10-30T02:09:07.010Z,11.79
2023-10-30T02:11:47.253Z,11.78
2023-10-30T02:14:28.399Z,11.79
2023-10-30T02:17:08.842Z,11.78
2023-10-30T02:19:49.351Z,11.78
2023-10-30T02:22:29.784Z,11.82
2023-10-30T02:25:09.890Z,11.85
2023-10-30T02:27:50.897Z,11.91
2023-10-30T02:30:31.246Z,11.96
2023-10-30T02:33:11.346Z,11.91
2023-10-30T02:35:51.641Z,11.94
2023-10-30T02:38:31.549Z,12.01
2023-10-30T02:41:11.612Z,11.96
2023-10-30T02:43:51.919Z,11.95
2023-10-30T02:46:32.415Z,11.98
2023-10-30T02:49:12.372Z,11.94
2023-10-30T02:51:52.938Z,11.92
2023-10-30T02:54:33.186Z,11.92
2023-10-30T02:57:14.500Z,11.93
2023-10-30T02:59:54.783Z,11.93
2023-10-30T03:02:35.008Z,11.92
2023-10-30T03:05:15.190Z,11.89
2023-10-30T03:07:55.294Z,11.86
2023-10-30T03:10:35.473Z,11.87
2023-10-30T03:13:15.717Z,11.84
2023-10-30T03:15:55.856Z,11.81
2023-10-30T03:18:36.164Z,11.79
2023-10-30T03:21:16.396Z,11.84
2023-10-30T03:23:56.730Z,11.86
2023-10-30T03:26:37.191Z,11.82
2023-10-30T03:29:17.557Z,11.82
2023-10-30T03:31:57.883Z,11.84
2023-10-30T03:34:37.828Z,11.82
2023-10-30T03:37:17.948Z,11.78
2023-10-30T03:39:58.708Z,11.84
2023-10-30T03:42:38.952Z,11.87
2023-10-30T03:45:19.452Z,11.84
2023-10-30T03:48:00.111Z,11.89
2023-10-30T03:50:40.057Z,11.88
2023-10-30T03:53:20.132Z,11.89
2023-10-30T03:56:05.446Z,11.83
2023-10-30T03:58:45.519Z,11.83
2023-10-30T04:01:25.858Z,11.82
2023-10-30T04:04:06.467Z,11.82
2023-10-30T04:06:47.009Z,11.89
2023-10-30T04:09:27.082Z,11.87
2023-10-30T04:12:07.548Z,11.85
2023-10-30T04:14:47.943Z,11.81
2023-10-30T04:17:28.080Z,11.82
2023-10-30T04:20:08.572Z,11.81
2023-10-30T04:22:50.635Z,11.80
2023-10-30T04:25:30.825Z,11.81
2023-10-30T04:28:10.851Z,11.80
2023-10-30T04:30:50.950Z,11.80
2023-10-30T04:33:30.895Z,11.77
2023-10-30T04:36:11.010Z,11.70
2023-10-30T04:38:51.274Z,11.72
2023-10-30T04:41:34.220Z,11.66
2023-10-30T04:44:14.355Z,11.62
2023-10-30T04:46:54.667Z,11.59
2023-10-30T04:49:39.203Z,11.62
2023-10-30T04:52:19.375Z,11.67
2023-10-30T04:55:00.236Z,11.61
2023-10-30T04:57:40.518Z,11.61
2023-10-30T05:00:21.053Z,11.63
2023-10-30T05:03:01.142Z,11.62
2023-10-30T05:05:41.700Z,11.61
2023-10-30T05:08:22.416Z,11.64
2023-10-30T05:11:03.425Z,11.61
2023-10-30T05:13:43.655Z,11.61
2023-10-30T05:16:24.199Z,11.60
2023-10-30T05:19:04.287Z,11.60
2023-10-30T05:21:44.670Z,11.59
2023-10-30T05:24:24.782Z,11.58
2023-10-30T05:27:05.153Z,11.55
2023-10-30T05:29:45.226Z,11.59
2023-10-30T05:32:25.654Z,11.59
2023-10-30T05:35:06.592Z,11.55
2023-10-30T05:37:46.413Z,11.51
2023-10-30T05:40:26.712Z,11.51
2023-10-30T05:43:06.838Z,11.56
2023-10-30T05:45:50.141Z,11.60
2023-10-30T05:48:30.484Z,11.56
2023-10-30T05:51:11.375Z,11.54
2023-10-30T05:53:51.899Z,11.61
2023-10-30T05:56:31.844Z,11.58
2023-10-30T05:59:11.869Z,11.59
2023-10-30T06:01:52.374Z,11.63
2023-10-30T06:04:32.754Z,11.65
2023-10-30T06:07:13.011Z,11.53
2023-10-30T06:09:54.915Z,11.46
2023-10-30T06:12:35.329Z,11.51
2023-10-30T06:15:15.578Z,11.52
2023-10-30T06:17:56.054Z,11.59
2023-10-30T06:20:36.844Z,11.50
2023-10-30T06:23:16.987Z,11.54
2023-10-30T06:25:57.121Z,11.63
2023-10-30T06:28:41.112Z,11.57
2023-10-30T06:31:21.336Z,11.54
2023-10-30T06:34:02.815Z,11.57
2023-10-30T06:36:44.053Z,11.55
2023-10-30T06:39:24.170Z,11.54
2023-10-30T06:42:04.705Z,11.53
2023-10-30T06:44:45.566Z,11.63
2023-10-30T06:47:28.274Z,11.66
2023-10-30T06:50:08.726Z,11.72
2023-10-30T06:52:48.888Z,11.79
2023-10-30T06:55:29.318Z,11.78
2023-10-30T06:58:09.366Z,11.86
2023-10-30T07:00:49.576Z,11.88
2023-10-30T07:03:31.297Z,11.89
2023-10-30T07:06:12.329Z,11.91
2023-10-30T07:08:52.552Z,11.91
2023-10-30T07:11:32.708Z,11.93
2023-10-30T07:14:13.198Z,11.98
2023-10-30T07:17:03.743Z,11.95
2023-10-30T07:19:45.392Z,11.94
2023-10-30T07:22:26.421Z,11.96
2023-10-30T07:25:07.623Z,11.96
2023-10-30T07:27:47.570Z,12.05
2023-10-30T07:30:28.149Z,12.15
2023-10-30T07:33:09.281Z,12.14
2023-10-30T07:35:56.049Z,12.14
2023-10-30T07:38:37.369Z,12.12
2023-10-30T07:41:17.422Z,12.07
2023-10-30T07:43:57.555Z,11.99
2023-10-30T07:46:37.971Z,11.89
2023-10-30T07:49:17.929Z,11.89
2023-10-30T07:51:58.101Z,11.90
2023-10-30T07:54:38.534Z,11.96
2023-10-30T07:57:18.672Z,12.03
2023-10-30T07:59:58.887Z,12.16
2023-10-30T08:02:39.139Z,12.33
2023-10-30T08:05:19.620Z,12.44
2023-10-30T08:08:00.202Z,12.55
2023-10-30T08:10:41.465Z,12.54
2023-10-30T08:13:22.192Z,12.60
2023-10-30T08:16:02.418Z,12.59
2023-10-30T08:18:43.094Z,12.68
2023-10-30T08:21:23.500Z,12.72
2023-10-30T08:24:04.198Z,12.72
2023-10-30T08:26:44.517Z,12.73
2023-10-30T08:29:24.693Z,12.70
2023-10-30T08:32:05.117Z,12.77
2023-10-30T08:34:45.863Z,12.77
2023-10-30T08:37:26.169Z,12.79
2023-10-30T08:40:09.606Z,12.82
2023-10-30T08:42:49.893Z,12.88
2023-10-30T08:45:30.397Z,12.89
2023-10-30T08:48:19.347Z,12.97
2023-10-30T08:51:00.154Z,13.04
2023-10-30T08:53:40.973Z,13.11
2023-10-30T08:56:21.574Z,13.09
2023-10-30T08:59:02.298Z,13.08
2023-10-30T09:01:42.367Z,13.08
2023-10-30T09:04:22.905Z,13.13
2023-10-30T09:07:03.944Z,13.21
2023-10-30T09:09:44.329Z,13.20
2023-10-30T09:12:24.157Z,13.20
2023-10-30T09:15:06.224Z,13.18
2023-10-30T09:17:46.349Z,13.39
2023-10-30T09:20:26.896Z,13.76
2023-10-30T09:23:07.297Z,14.18
2023-10-30T09:25:47.585Z,14.49
2023-10-30T09:28:27.988Z,14.82
2023-10-30T09:31:08.107Z,14.92
2023-10-30T09:33:49.503Z,15.22
2023-10-30T09:36:30.054Z,15.32
2023-10-30T09:39:10.347Z,15.29
2023-10-30T09:41:51.306Z,15.13
2023-10-30T09:44:32.083Z,14.80
2023-10-30T09:47:12.579Z,14.72
2023-10-30T09:49:53.639Z,14.75
2023-10-30T09:52:34.385Z,14.58
2023-10-30T09:55:17.401Z,14.51
2023-10-30T09:57:57.985Z,14.50
2023-10-30T10:00:38.280Z,14.66
2023-10-30T10:03:18.971Z,14.80
2023-10-30T10:06:01.130Z,14.71
2023-10-30T10:08:43.602Z,14.69
2023-10-30T10:11:24.030Z,14.67
2023-10-30T10:14:06.668Z,14.65
2023-10-30T10:16:47.653Z,14.68
2023-10-30T10:19:27.842Z,14.64
2023-10-30T10:22:08.093Z,14.53
2023-10-30T10:24:49.209Z,14.51
2023-10-30T10:27:29.977Z,14.49
2023-10-30T10:30:11.132Z,14.58
2023-10-30T10:32:51.574Z,14.66
2023-10-30T10:35:31.973Z,14.68
2023-10-30T10:38:14.461Z,15.03
2023-10-30T10:40:58.371Z,15.07
2023-10-30T10:43:39.850Z,15.28
2023-10-30T10:46:19.958Z,15.46
2023-10-30T10:49:00.199Z,15.57
2023-10-30T10:51:44.291Z,15.61
2023-10-30T10:54:30.678Z,15.67
2023-10-30T10:57:18.060Z,15.83
2023-10-30T11:00:08.033Z,15.69
2023-10-30T11:02:51.141Z,15.43
2023-10-30T11:05:33.723Z,15.54
2023-10-30T11:08:26.746Z,15.42
2023-10-30T11:11:30.790Z,15.05
2023-10-30T11:14:48.588Z,15.00
2023-10-30T11:17:29.202Z,14.91
2023-10-30T11:20:11.120Z,15.00
2023-10-30T11:22:51.500Z,15.23
2023-10-30T11:25:37.491Z,15.63
2023-10-30T11:28:17.604Z,15.80
2023-10-30T11:31:04.001Z,15.85
2023-10-30T11:33:46.747Z,16.12
2023-10-30T11:36:28.222Z,16.16
2023-10-30T11:39:12.303Z,15.75
2023-10-30T11:41:54.574Z,15.91
2023-10-30T11:44:34.654Z,16.01
2023-10-30T11:47:14.898Z,15.99
2023-10-30T11:49:59.307Z,15.99
2023-10-30T11:52:39.730Z,16.23
2023-10-30T11:55:20.501Z,16.21
2023-10-30T11:58:00.936Z,16.16
2023-10-30T12:00:46.180Z,16.23
2023-10-30T12:03:26.794Z,16.40
2023-10-30T12:06:07.349Z,16.53
2023-10-30T12:08:47.686Z,16.32
2023-10-30T12:11:28.781Z,16.38
2023-10-30T12:14:09.133Z,16.42
2023-10-30T12:16:51.314Z,16.61
2023-10-30T12:19:31.675Z,16.47
2023-10-30T12:22:11.956Z,16.63
2023-10-30T12:24:52.283Z,16.69
2023-10-30T12:27:32.754Z,16.69
2023-10-30T12:30:15.575Z,16.58
2023-10-30T12:32:58.564Z,16.56
2023-10-30T12:35:41.421Z,16.53
2023-10-30T12:38:21.675Z,16.61
2023-10-30T12:41:07.456Z,16.73
2023-10-30T12:43:48.234Z,16.71
2023-10-30T12:46:28.299Z,16.97
2023-10-30T12:49:08.815Z,16.88
2023-10-30T12:51:49.597Z,17.03
2023-10-30T12:54:30.137Z,17.10
2023-10-30T12:57:10.214Z,17.00
2023-10-30T12:59:51.029Z,17.21
2023-10-30T13:02:31.799Z,17.33
2023-10-30T13:05:13.318Z,17.02
2023-10-30T13:07:53.964Z,17.05
2023-10-30T13:10:34.261Z,16.80
2023-10-30T13:13:17.431Z,16.76
2023-10-30T13:15:57.714Z,16.82
2023-10-30T13:18:37.998Z,16.73
2023-10-30T13:21:18.348Z,16.81
2023-10-30T13:23:59.074Z,16.82
2023-10-30T13:26:39.729Z,16.76
2023-10-30T13:29:19.778Z,16.56
2023-10-30T13:32:00.115Z,16.36
2023-10-30T13:34:40.290Z,16.37
2023-10-30T13:37:20.697Z,16.54
2023-10-30T13:40:00.722Z,16.48
2023-10-30T13:42:41.806Z,16.35
2023-10-30T13:45:22.248Z,16.44
2023-10-30T13:48:02.717Z,16.40
2023-10-30T13:50:43.074Z,16.25
2023-10-30T13:53:23.079Z,15.91
2023-10-30T13:56:04.252Z,15.85
2023-10-30T13:58:45.028Z,15.88
2023-10-30T14:01:25.411Z,15.85
2023-10-30T14:04:05.989Z,15.88
2023-10-30T14:06:46.374Z,15.88
2023-10-30T14:09:26.666Z,15.75
2023-10-30T14:12:07.456Z,15.66
2023-10-30T14:14:47.486Z,15.71
2023-10-30T14:17:28.096Z,15.70
2023-10-30T14:20:08.857Z,15.66
2023-10-30T14:22:49.143Z,15.50
2023-10-30T14:25:29.204Z,15.16
2023-10-30T14:28:09.124Z,15.31
2023-10-30T14:30:49.469Z,15.36
2023-10-30T14:33:30.021Z,15.35
2023-10-30T14:36:10.259Z,15.35
2023-10-30T14:38:50.930Z,15.35
2023-10-30T14:41:32.918Z,15.35
2023-10-30T14:44:13.391Z,15.21
2023-10-30T14:46:53.679Z,15.22
2023-10-30T14:49:33.786Z,15.16
2023-10-30T14:52:14.462Z,15.03
2023-10-30T14:54:54.711Z,14.93
2023-10-30T14:57:35.176Z,14.81
2023-10-30T15:00:15.388Z,14.62
2023-10-30T15:02:56.023Z,14.50
2023-10-30T15:05:36.182Z,14.51
2023-10-30T15:08:16.912Z,14.39
2023-10-30T15:10:56.940Z,14.39
2023-10-30T15:13:38.042Z,14.41
2023-10-30T15:16:18.881Z,14.41
2023-10-30T15:18:59.273Z,14.34
2023-10-30T15:21:39.462Z,14.36
2023-10-30T15:24:19.698Z,14.34
2023-10-30T15:26:59.833Z,14.32
2023-10-30T15:29:39.892Z,14.20
2023-10-30T15:32:19.749Z,14.12
2023-10-30T15:35:00.394Z,14.15
2023-10-30T15:37:41.568Z,14.10
2023-10-30T15:40:22.010Z,14.01
2023-10-30T15:43:02.448Z,13.98
2023-10-30T15:45:44.204Z,13.90
2023-10-30T15:48:24.670Z,13.88
2023-10-30T15:51:04.702Z,13.84
2023-10-30T15:59:15.486Z,13.77
2023-10-30T16:04:43.617Z,13.65
2023-10-30T16:07:40.865Z,13.62
2023-10-30T16:13:05.752Z,13.50
2023-10-30T16:15:46.570Z,13.50
2023-10-30T16:18:26.964Z,13.49
2023-10-30T16:23:50.461Z,13.46
2023-10-30T16:26:30.773Z,13.45
2023-10-30T16:29:11.698Z,13.43
2023-10-30T16:31:52.813Z,13.46
2023-10-30T16:34:33.122Z,13.41
2023-10-30T16:37:13.389Z,13.42
2023-10-30T16:39:53.494Z,13.39
2023-10-30T16:42:33.554Z,13.41
2023-10-30T16:45:13.993Z,13.38
2023-10-30T16:47:54.251Z,13.39
2023-10-30T16:50:35.577Z,13.45
2023-10-30T16:53:17.206Z,13.42
2023-10-30T16:55:57.213Z,13.35
2023-10-30T16:58:37.644Z,13.35
2023-10-30T17:01:17.765Z,13.28
2023-10-30T17:03:57.943Z,13.34
2023-10-30T17:06:38.344Z,13.32
2023-10-30T17:09:18.390Z,13.30
2023-10-30T17:11:58.547Z,13.28
2023-10-30T17:14:38.467Z,13.26
2023-10-30T17:17:18.643Z,13.27
2023-10-30T17:19:58.631Z,13.25
2023-10-30T17:22:39.177Z,13.25
2023-10-30T17:25:19.527Z,13.22
2023-10-30T17:27:59.509Z,13.20
2023-10-30T17:30:40.134Z,13.10
2023-10-30T17:33:21.356Z,13.12
2023-10-30T17:36:01.749Z,13.11
2023-10-30T17:38:42.127Z,13.06
2023-10-30T17:41:22.682Z,13.15
2023-10-30T17:44:03.406Z,13.27
2023-10-30T17:46:43.817Z,13.28
2023-10-30T17:49:24.292Z,13.36
2023-10-30T17:52:04.973Z,13.40
2023-10-30T17:54:45.334Z,13.43
2023-10-30T17:57:25.709Z,13.40
2023-10-30T18:00:08.524Z,13.40
2023-10-30T18:02:48.597Z,13.39
2023-10-30T18:05:28.824Z,13.48
2023-10-30T18:08:09.262Z,13.48
2023-10-30T18:10:49.281Z,13.48
2023-10-30T18:13:29.600Z,13.55
2023-10-30T18:16:09.980Z,13.55
2023-10-30T18:18:50.272Z,13.46
2023-10-30T18:21:30.367Z,13.46
2023-10-30T18:24:10.758Z,13.32
2023-10-30T18:26:55.321Z,13.32
2023-10-30T18:29:35.814Z,13.28
2023-10-30T18:32:16.006Z,13.25
2023-10-30T18:34:57.588Z,13.21
2023-10-30T18:37:38.272Z,13.20
2023-10-30T18:40:18.371Z,13.19
2023-10-30T18:42:59.941Z,13.11
2023-10-30T18:45:39.896Z,13.15
2023-10-30T18:48:20.162Z,13.09
2023-10-30T18:51:02.269Z,13.05
2023-10-30T18:53:42.384Z,13.06
2023-10-30T18:56:22.300Z,13.02
2023-10-30T18:59:02.449Z,13.09
2023-10-30T19:01:42.524Z,13.02
2023-10-30T19:04:23.066Z,13.04
2023-10-30T19:07:04.217Z,13.04
2023-10-30T19:09:44.283Z,13.03
2023-10-30T19:12:24.831Z,13.02
2023-10-30T19:15:05.153Z,12.98
2023-10-30T19:17:45.277Z,12.96
2023-10-30T19:20:25.641Z,12.94
2023-10-30T19:23:06.062Z,12.96
2023-10-30T19:25:46.369Z,12.86
2023-10-30T19:28:26.627Z,12.83
2023-10-30T19:31:08.191Z,12.89
2023-10-30T19:33:48.262Z,12.91
2023-10-30T19:36:28.476Z,12.84
2023-10-30T19:39:10.527Z,12.85
2023-10-30T19:41:51.048Z,12.83
2023-10-30T19:44:32.684Z,12.81
2023-10-30T19:47:15.112Z,12.82
2023-10-30T19:49:55.463Z,12.84
2023-10-30T19:52:35.519Z,12.84
2023-10-30T19:55:15.776Z,12.88
2023-10-30T19:57:56.057Z,12.83
2023-10-30T20:00:36.325Z,12.80
2023-10-30T20:03:16.768Z,12.77
2023-10-30T20:05:56.909Z,12.80
2023-10-30T20:08:37.174Z,12.81
2023-10-30T20:11:17.408Z,12.80
2023-10-30T20:13:59.284Z,12.87
2023-10-30T20:16:39.765Z,12.77
2023-10-30T20:19:20.237Z,12.71
2023-10-30T20:22:00.666Z,12.74
2023-10-30T20:24:42.484Z,12.77
2023-10-30T20:27:22.676Z,12.75
2023-10-30T20:30:02.728Z,12.76
2023-10-30T20:32:43.348Z,12.73
2023-10-30T20:35:23.538Z,12.72
2023-10-30T20:38:04.042Z,12.70
2023-10-30T20:40:44.709Z,12.72
2023-10-30T20:43:26.381Z,12.68
2023-10-30T20:46:12.379Z,12.73
2023-10-30T20:48:52.615Z,12.72
2023-10-30T20:51:32.949Z,12.69
2023-10-30T20:54:13.265Z,12.71
2023-10-30T20:56:53.336Z,12.72
2023-10-30T20:59:33.688Z,12.74
2023-10-30T21:02:14.033Z,12.73
2023-10-30T21:04:56.773Z,12.72
2023-10-30T21:07:37.521Z,12.72
2023-10-30T21:10:17.469Z,12.72
2023-10-30T21:12:58.300Z,12.70
2023-10-30T21:15:38.624Z,12.68
2023-10-30T21:18:19.354Z,12.67
2023-10-30T21:21:00.004Z,12.70
2023-10-30T21:23:40.266Z,12.71
2023-10-30T21:26:20.511Z,12.67
2023-10-30T21:29:00.602Z,12.66
2023-10-30T21:31:41.967Z,12.65
2023-10-30T21:34:24.732Z,12.65
2023-10-30T21:37:05.858Z,12.65
2023-10-30T21:39:46.156Z,12.66
2023-10-30T21:42:26.691Z,12.64
2023-10-30T21:45:07.294Z,12.63
2023-10-30T21:47:47.241Z,12.63
2023-10-30T21:50:27.333Z,12.60
2023-10-30T21:53:07.702Z,12.57
2023-10-30T21:55:47.856Z,12.56
2023-10-30T21:58:28.066Z,12.60
2023-10-30T22:01:08.181Z,12.60
2023-10-30T22:03:48.748Z,12.55
2023-10-30T22:06:28.981Z,12.54
2023-10-30T22:09:09.172Z,12.54
2023-10-30T22:11:49.178Z,12.55
2023-10-30T22:14:29.500Z,12.48
2023-10-30T22:17:09.762Z,12.50
2023-10-30T22:19:50.062Z,12.49
2023-10-30T22:22:30.412Z,12.51
2023-10-30T22:25:11.789Z,12.49
2023-10-30T22:27:51.744Z,12.49
2023-10-30T22:30:31.903Z,12.48
2023-10-30T22:33:12.417Z,12.47
2023-10-30T22:35:52.482Z,12.48
2023-10-30T22:38:32.681Z,12.48
2023-10-30T22:41:13.188Z,12.51
2023-10-30T22:43:54.506Z,12.49
2023-10-30T22:46:35.007Z,12.52
2023-10-30T22:49:14.990Z,12.51
2023-10-30T22:51:55.072Z,12.53
2023-10-30T22:54:36.200Z,12.51
2023-10-30T22:57:16.658Z,12.53
2023-10-30T22:59:56.794Z,12.51
2023-10-30T23:02:36.853Z,12.52
2023-10-30T23:05:17.305Z,12.48
2023-10-30T23:07:57.576Z,12.50
2023-10-30T23:10:37.642Z,12.52
2023-10-30T23:13:17.720Z,12.54
2023-10-30T23:15:57.976Z,12.54
2023-10-30T23:18:38.344Z,12.52
2023-10-30T23:21:18.644Z,12.46
2023-10-30T23:23:59.154Z,12.48
2023-10-30T23:26:39.270Z,12.47
2023-10-30T23:29:19.279Z,12.47
2023-10-30T23:31:59.491Z,12.48
2023-10-30T23:34:39.853Z,12.48
2023-10-30T23:37:20.023Z,12.51
2023-10-30T23:40:00.277Z,12.53
2023-10-30T23:42:40.476Z,12.54
2023-10-30T23:45:20.974Z,12.51
2023-10-30T23:48:01.153Z,12.55
2023-10-30T23:50:41.594Z,12.51
2023-10-30T23:53:21.828Z,12.53
2023-10-30T23:56:02.134Z,12.57
2023-10-30T23:58:42.730Z,12.49
